sensor_id;sensor_type;location;lat;lon;timestamp;temperature;humidity
74877;HTU21D;64660;44.786;37.680;2022-12-07T00:00:31;2.49;81.97
74877;HTU21D;64660;44.786;37.680;2022-12-07T00:03:08;2.57;82.04
74877;HTU21D;64660;44.786;37.680;2022-12-07T00:05:36;2.67;81.88
74877;HTU21D;64660;44.786;37.680;2022-12-07T00:08:11;2.82;81.67
74877;HTU21D;64660;44.786;37.680;2022-12-07T00:10:39;2.95;81.39
74877;HTU21D;64660;44.786;37.680;2022-12-07T00:13:07;3.02;81.10
74877;HTU21D;64660;44.786;37.680;2022-12-07T00:15:36;3.01;81.07
74877;HTU21D;64660;44.786;37.680;2022-12-07T00:18:11;2.87;81.25
74877;HTU21D;64660;44.786;37.680;2022-12-07T00:20:39;2.60;81.79
74877;HTU21D;64660;44.786;37.680;2022-12-07T00:23:07;2.32;82.35
74877;HTU21D;64660;44.786;37.680;2022-12-07T00:25:36;2.11;82.75
74877;HTU21D;64660;44.786;37.680;2022-12-07T00:28:03;1.94;83.07
74877;HTU21D;64660;44.786;37.680;2022-12-07T00:30:45;1.82;83.35
74877;HTU21D;64660;44.786;37.680;2022-12-07T00:33:20;1.77;83.49
74877;HTU21D;64660;44.786;37.680;2022-12-07T00:35:54;1.80;83.59
74877;HTU21D;64660;44.786;37.680;2022-12-07T00:38:32;1.83;83.59
74877;HTU21D;64660;44.786;37.680;2022-12-07T00:41:19;1.82;83.45
74877;HTU21D;64660;44.786;37.680;2022-12-07T00:43:57;1.73;83.45
74877;HTU21D;64660;44.786;37.680;2022-12-07T00:46:26;1.72;83.68
74877;HTU21D;64660;44.786;37.680;2022-12-07T00:48:55;1.72;83.81
74877;HTU21D;64660;44.786;37.680;2022-12-07T00:51:22;1.75;83.78
74877;HTU21D;64660;44.786;37.680;2022-12-07T00:54:08;1.68;83.71
74877;HTU21D;64660;44.786;37.680;2022-12-07T00:56:36;1.53;83.84
74877;HTU21D;64660;44.786;37.680;2022-12-07T00:59:06;1.47;84.13
74877;HTU21D;64660;44.786;37.680;2022-12-07T01:01:34;1.42;84.24
74877;HTU21D;64660;44.786;37.680;2022-12-07T01:04:29;1.38;84.32
74877;HTU21D;64660;44.786;37.680;2022-12-07T01:06:57;1.33;84.49
74877;HTU21D;64660;44.786;37.680;2022-12-07T01:09:25;1.35;84.58
74877;HTU21D;64660;44.786;37.680;2022-12-07T01:11:51;1.38;84.62
74877;HTU21D;64660;44.786;37.680;2022-12-07T01:14:26;1.37;84.90
74877;HTU21D;64660;44.786;37.680;2022-12-07T01:17:10;1.40;85.03
74877;HTU21D;64660;44.786;37.680;2022-12-07T01:19:39;1.38;85.02
74877;HTU21D;64660;44.786;37.680;2022-12-07T01:22:06;1.32;85.10
74877;HTU21D;64660;44.786;37.680;2022-12-07T01:24:32;1.21;85.15
74877;HTU21D;64660;44.786;37.680;2022-12-07T01:27:09;1.09;85.30
74877;HTU21D;64660;44.786;37.680;2022-12-07T01:29:36;0.97;85.34
74877;HTU21D;64660;44.786;37.680;2022-12-07T01:32:02;0.88;85.42
74877;HTU21D;64660;44.786;37.680;2022-12-07T01:34:48;0.76;85.64
74877;HTU21D;64660;44.786;37.680;2022-12-07T01:37:16;0.73;85.58
74877;HTU21D;64660;44.786;37.680;2022-12-07T01:39:48;0.77;85.63
74877;HTU21D;64660;44.786;37.680;2022-12-07T01:42:45;0.80;85.54
74877;HTU21D;64660;44.786;37.680;2022-12-07T01:48:04;0.89;85.35
74877;HTU21D;64660;44.786;37.680;2022-12-07T01:50:31;0.89;85.30
74877;HTU21D;64660;44.786;37.680;2022-12-07T01:53:10;0.86;85.32
74877;HTU21D;64660;44.786;37.680;2022-12-07T01:55:49;0.82;85.22
74877;HTU21D;64660;44.786;37.680;2022-12-07T01:58:20;0.86;85.42
74877;HTU21D;64660;44.786;37.680;2022-12-07T02:00:48;0.87;85.42
74877;HTU21D;64660;44.786;37.680;2022-12-07T02:06:22;1.19;85.47
74877;HTU21D;64660;44.786;37.680;2022-12-07T02:08:53;1.52;85.22
74877;HTU21D;64660;44.786;37.680;2022-12-07T02:11:39;1.80;84.69
74877;HTU21D;64660;44.786;37.680;2022-12-07T02:14:07;1.99;84.29
74877;HTU21D;64660;44.786;37.680;2022-12-07T02:16:38;2.11;84.13
74877;HTU21D;64660;44.786;37.680;2022-12-07T02:22:25;2.26;83.84
74877;HTU21D;64660;44.786;37.680;2022-12-07T02:27:46;2.29;84.00
74877;HTU21D;64660;44.786;37.680;2022-12-07T02:30:31;2.26;84.07
74877;HTU21D;64660;44.786;37.680;2022-12-07T02:39:07;2.16;84.59
74877;HTU21D;64660;44.786;37.680;2022-12-07T02:41:51;2.08;84.71
74877;HTU21D;64660;44.786;37.680;2022-12-07T02:44:27;2.06;84.71
74877;HTU21D;64660;44.786;37.680;2022-12-07T02:47:08;2.06;84.84
74877;HTU21D;64660;44.786;37.680;2022-12-07T02:49:49;1.96;84.81
74877;HTU21D;64660;44.786;37.680;2022-12-07T02:52:26;1.93;84.98
74877;HTU21D;64660;44.786;37.680;2022-12-07T02:54:53;1.94;84.96
74877;HTU21D;64660;44.786;37.680;2022-12-07T03:00:19;2.21;84.76
74877;HTU21D;64660;44.786;37.680;2022-12-07T03:03:09;2.36;84.52
74877;HTU21D;64660;44.786;37.680;2022-12-07T03:06:14;2.45;84.39
74877;HTU21D;64660;44.786;37.680;2022-12-07T03:09:13;2.52;84.26
74877;HTU21D;64660;44.786;37.680;2022-12-07T03:11:51;2.56;84.16
74877;HTU21D;64660;44.786;37.680;2022-12-07T03:14:37;2.60;84.27
74877;HTU21D;64660;44.786;37.680;2022-12-07T03:17:16;2.72;84.17
74877;HTU21D;64660;44.786;37.680;2022-12-07T03:19:48;2.82;83.98
74877;HTU21D;64660;44.786;37.680;2022-12-07T03:22:29;2.84;83.89
74877;HTU21D;64660;44.786;37.680;2022-12-07T03:25:16;2.75;84.07
74877;HTU21D;64660;44.786;37.680;2022-12-07T03:27:56;2.56;84.46
74877;HTU21D;64660;44.786;37.680;2022-12-07T03:30:51;2.37;84.90
74877;HTU21D;64660;44.786;37.680;2022-12-07T03:33:35;2.26;85.06
74877;HTU21D;64660;44.786;37.680;2022-12-07T03:36:14;2.31;85.15
74877;HTU21D;64660;44.786;37.680;2022-12-07T03:39:14;2.39;84.97
74877;HTU21D;64660;44.786;37.680;2022-12-07T03:41:47;2.39;84.90
74877;HTU21D;64660;44.786;37.680;2022-12-07T03:44:15;2.49;84.69
74877;HTU21D;64660;44.786;37.680;2022-12-07T03:47:20;2.65;84.53
74877;HTU21D;64660;44.786;37.680;2022-12-07T03:52:57;3.04;83.87
74877;HTU21D;64660;44.786;37.680;2022-12-07T03:55:31;3.17;83.64
74877;HTU21D;64660;44.786;37.680;2022-12-07T03:58:23;3.28;83.39
74877;HTU21D;64660;44.786;37.680;2022-12-07T04:01:10;3.35;83.29
74877;HTU21D;64660;44.786;37.680;2022-12-07T04:03:38;3.42;83.36
74877;HTU21D;64660;44.786;37.680;2022-12-07T04:06:06;3.48;83.39
74877;HTU21D;64660;44.786;37.680;2022-12-07T04:08:34;3.72;83.55
74877;HTU21D;64660;44.786;37.680;2022-12-07T04:11:01;4.15;83.04
74877;HTU21D;64660;44.786;37.680;2022-12-07T04:13:38;4.41;82.87
74877;HTU21D;64660;44.786;37.680;2022-12-07T04:16:32;4.53;83.27
74877;HTU21D;64660;44.786;37.680;2022-12-07T04:19:10;4.56;83.51
74877;HTU21D;64660;44.786;37.680;2022-12-07T04:21:39;4.62;83.74
74877;HTU21D;64660;44.786;37.680;2022-12-07T04:24:06;4.73;83.76
74877;HTU21D;64660;44.786;37.680;2022-12-07T04:26:36;4.81;83.84
74877;HTU21D;64660;44.786;37.680;2022-12-07T04:29:03;4.81;83.92
74877;HTU21D;64660;44.786;37.680;2022-12-07T04:31:30;4.76;84.13
74877;HTU21D;64660;44.786;37.680;2022-12-07T04:33:58;4.73;84.30
74877;HTU21D;64660;44.786;37.680;2022-12-07T04:36:28;4.69;84.39
74877;HTU21D;64660;44.786;37.680;2022-12-07T04:38:59;4.71;84.49
74877;HTU21D;64660;44.786;37.680;2022-12-07T04:41:28;4.73;84.58
74877;HTU21D;64660;44.786;37.680;2022-12-07T04:43:58;4.75;84.70
74877;HTU21D;64660;44.786;37.680;2022-12-07T04:46:29;4.76;84.71
74877;HTU21D;64660;44.786;37.680;2022-12-07T04:49:08;4.78;84.70
74877;HTU21D;64660;44.786;37.680;2022-12-07T04:51:37;4.78;84.77
74877;HTU21D;64660;44.786;37.680;2022-12-07T04:54:06;4.81;84.77
74877;HTU21D;64660;44.786;37.680;2022-12-07T04:56:34;4.89;84.74
74877;HTU21D;64660;44.786;37.680;2022-12-07T04:59:11;4.96;84.72
74877;HTU21D;64660;44.786;37.680;2022-12-07T05:01:39;5.06;84.64
74877;HTU21D;64660;44.786;37.680;2022-12-07T05:04:08;5.10;84.65
74877;HTU21D;64660;44.786;37.680;2022-12-07T05:06:37;5.17;84.71
74877;HTU21D;64660;44.786;37.680;2022-12-07T05:09:06;5.21;84.74
74877;HTU21D;64660;44.786;37.680;2022-12-07T05:11:33;5.21;84.87
74877;HTU21D;64660;44.786;37.680;2022-12-07T05:14:20;5.21;85.06
74877;HTU21D;64660;44.786;37.680;2022-12-07T05:16:50;5.27;85.05
74877;HTU21D;64660;44.786;37.680;2022-12-07T05:19:28;5.42;85.16
74877;HTU21D;64660;44.786;37.680;2022-12-07T05:21:57;5.63;85.09
74877;HTU21D;64660;44.786;37.680;2022-12-07T05:24:26;5.87;85.00
74877;HTU21D;64660;44.786;37.680;2022-12-07T05:26:57;6.04;85.03
74877;HTU21D;64660;44.786;37.680;2022-12-07T05:29:27;6.13;85.06
74877;HTU21D;64660;44.786;37.680;2022-12-07T05:31:56;6.13;85.18
74877;HTU21D;64660;44.786;37.680;2022-12-07T05:34:22;6.19;85.43
74877;HTU21D;64660;44.786;37.680;2022-12-07T05:36:52;6.38;85.39
74877;HTU21D;64660;44.786;37.680;2022-12-07T05:39:20;6.44;85.35
74877;HTU21D;64660;44.786;37.680;2022-12-07T05:41:51;6.48;85.47
74877;HTU21D;64660;44.786;37.680;2022-12-07T05:44:42;6.51;85.53
74877;HTU21D;64660;44.786;37.680;2022-12-07T05:47:10;6.56;85.58
74877;HTU21D;64660;44.786;37.680;2022-12-07T05:49:40;6.59;85.61
74877;HTU21D;64660;44.786;37.680;2022-12-07T05:52:09;6.63;85.67
74877;HTU21D;64660;44.786;37.680;2022-12-07T05:54:37;6.65;85.76
74877;HTU21D;64660;44.786;37.680;2022-12-07T05:57:07;6.69;85.77
74877;HTU21D;64660;44.786;37.680;2022-12-07T05:59:39;6.74;85.81
74877;HTU21D;64660;44.786;37.680;2022-12-07T06:02:12;6.83;85.75
74877;HTU21D;64660;44.786;37.680;2022-12-07T06:04:43;6.89;85.89
74877;HTU21D;64660;44.786;37.680;2022-12-07T06:07:30;6.95;85.97
74877;HTU21D;64660;44.786;37.680;2022-12-07T06:09:58;6.96;86.11
74877;HTU21D;64660;44.786;37.680;2022-12-07T06:12:24;6.99;86.27
74877;HTU21D;64660;44.786;37.680;2022-12-07T06:15:17;7.02;86.29
74877;HTU21D;64660;44.786;37.680;2022-12-07T06:17:45;7.03;86.35
74877;HTU21D;64660;44.786;37.680;2022-12-07T06:20:11;7.05;86.34
74877;HTU21D;64660;44.786;37.680;2022-12-07T06:22:51;7.03;86.45
74877;HTU21D;64660;44.786;37.680;2022-12-07T06:25:20;7.02;86.56
74877;HTU21D;64660;44.786;37.680;2022-12-07T06:27:49;7.00;86.67
74877;HTU21D;64660;44.786;37.680;2022-12-07T06:30:18;7.00;86.67
74877;HTU21D;64660;44.786;37.680;2022-12-07T06:32:46;6.96;86.74
74877;HTU21D;64660;44.786;37.680;2022-12-07T06:35:16;6.88;86.90
74877;HTU21D;64660;44.786;37.680;2022-12-07T06:37:47;6.85;87.01
74877;HTU21D;64660;44.786;37.680;2022-12-07T06:40:18;6.81;87.10
74877;HTU21D;64660;44.786;37.680;2022-12-07T06:42:46;6.80;87.15
74877;HTU21D;64660;44.786;37.680;2022-12-07T06:45:15;6.80;87.19
74877;HTU21D;64660;44.786;37.680;2022-12-07T06:47:41;6.76;87.08
74877;HTU21D;64660;44.786;37.680;2022-12-07T06:50:09;6.72;87.12
74877;HTU21D;64660;44.786;37.680;2022-12-07T06:52:36;6.75;87.07
74877;HTU21D;64660;44.786;37.680;2022-12-07T06:55:02;6.87;86.88
74877;HTU21D;64660;44.786;37.680;2022-12-07T06:57:29;7.08;86.67
74877;HTU21D;64660;44.786;37.680;2022-12-07T06:59:57;7.33;86.38
74877;HTU21D;64660;44.786;37.680;2022-12-07T07:02:28;7.57;86.13
74877;HTU21D;64660;44.786;37.680;2022-12-07T07:04:57;7.79;85.91
74877;HTU21D;64660;44.786;37.680;2022-12-07T07:07:26;8.02;85.77
74877;HTU21D;64660;44.786;37.680;2022-12-07T07:10:01;8.21;85.54
74877;HTU21D;64660;44.786;37.680;2022-12-07T07:12:38;8.30;85.42
74877;HTU21D;64660;44.786;37.680;2022-12-07T07:15:05;8.37;85.47
74877;HTU21D;64660;44.786;37.680;2022-12-07T07:17:36;8.46;85.38
74877;HTU21D;64660;44.786;37.680;2022-12-07T07:20:02;8.47;85.51
74877;HTU21D;64660;44.786;37.680;2022-12-07T07:22:29;8.39;85.73
74877;HTU21D;64660;44.786;37.680;2022-12-07T07:24:57;8.30;86.28
74877;HTU21D;64660;44.786;37.680;2022-12-07T07:27:26;8.26;86.81
74877;HTU21D;64660;44.786;37.680;2022-12-07T07:29:52;8.30;87.24
74877;HTU21D;64660;44.786;37.680;2022-12-07T07:32:19;8.38;87.51
74877;HTU21D;64660;44.786;37.680;2022-12-07T07:34:57;8.45;87.69
74877;HTU21D;64660;44.786;37.680;2022-12-07T07:37:25;8.52;87.91
74877;HTU21D;64660;44.786;37.680;2022-12-07T07:39:52;8.60;88.13
74877;HTU21D;64660;44.786;37.680;2022-12-07T07:42:30;8.77;88.35
74877;HTU21D;64660;44.786;37.680;2022-12-07T07:44:58;9.01;88.12
74877;HTU21D;64660;44.786;37.680;2022-12-07T07:47:26;9.14;87.92
74877;HTU21D;64660;44.786;37.680;2022-12-07T07:50:00;9.23;87.97
74877;HTU21D;64660;44.786;37.680;2022-12-07T07:52:34;9.33;88.12
74877;HTU21D;64660;44.786;37.680;2022-12-07T07:55:01;9.53;88.04
74877;HTU21D;64660;44.786;37.680;2022-12-07T07:57:37;9.76;87.83
74877;HTU21D;64660;44.786;37.680;2022-12-07T08:00:07;9.96;87.57
74877;HTU21D;64660;44.786;37.680;2022-12-07T08:02:45;10.13;87.42
74877;HTU21D;64660;44.786;37.680;2022-12-07T08:05:12;10.26;87.31
74877;HTU21D;64660;44.786;37.680;2022-12-07T08:08:09;10.38;87.34
74877;HTU21D;64660;44.786;37.680;2022-12-07T08:10:39;10.41;87.38
74877;HTU21D;64660;44.786;37.680;2022-12-07T08:13:07;10.48;87.49
74877;HTU21D;64660;44.786;37.680;2022-12-07T08:15:52;10.60;87.35
74877;HTU21D;64660;44.786;37.680;2022-12-07T08:18:19;10.66;87.29
74877;HTU21D;64660;44.786;37.680;2022-12-07T08:20:51;10.82;87.22
74877;HTU21D;64660;44.786;37.680;2022-12-07T08:23:30;11.08;86.93
74877;HTU21D;64660;44.786;37.680;2022-12-07T08:26:01;11.19;86.56
74877;HTU21D;64660;44.786;37.680;2022-12-07T08:28:38;11.19;86.70
74877;HTU21D;64660;44.786;37.680;2022-12-07T08:31:08;11.27;86.71
74877;HTU21D;64660;44.786;37.680;2022-12-07T08:33:47;11.40;86.50
74877;HTU21D;64660;44.786;37.680;2022-12-07T08:36:16;11.45;86.29
74877;HTU21D;64660;44.786;37.680;2022-12-07T08:38:45;11.42;86.38
74877;HTU21D;64660;44.786;37.680;2022-12-07T08:41:12;11.38;86.40
74877;HTU21D;64660;44.786;37.680;2022-12-07T08:43:50;11.30;86.35
74877;HTU21D;64660;44.786;37.680;2022-12-07T08:46:46;11.26;86.21
74877;HTU21D;64660;44.786;37.680;2022-12-07T08:49:24;11.12;86.12
74877;HTU21D;64660;44.786;37.680;2022-12-07T08:51:54;11.03;86.22
74877;HTU21D;64660;44.786;37.680;2022-12-07T08:54:21;10.90;86.24
74877;HTU21D;64660;44.786;37.680;2022-12-07T08:56:50;10.84;86.22
74877;HTU21D;64660;44.786;37.680;2022-12-07T08:59:26;10.79;86.06
74877;HTU21D;64660;44.786;37.680;2022-12-07T09:01:55;10.85;85.79
74877;HTU21D;64660;44.786;37.680;2022-12-07T09:04:21;10.97;85.35
74877;HTU21D;64660;44.786;37.680;2022-12-07T09:06:58;11.04;84.87
74877;HTU21D;64660;44.786;37.680;2022-12-07T09:09:27;11.08;84.57
74877;HTU21D;64660;44.786;37.680;2022-12-07T09:11:54;11.11;84.33
74877;HTU21D;64660;44.786;37.680;2022-12-07T09:14:20;11.16;84.26
74877;HTU21D;64660;44.786;37.680;2022-12-07T09:17:04;11.25;84.05
74877;HTU21D;64660;44.786;37.680;2022-12-07T09:19:41;11.32;83.90
74877;HTU21D;64660;44.786;37.680;2022-12-07T09:22:10;11.36;83.84
74877;HTU21D;64660;44.786;37.680;2022-12-07T09:24:42;11.37;83.76
74877;HTU21D;64660;44.786;37.680;2022-12-07T09:27:10;11.37;83.76
74877;HTU21D;64660;44.786;37.680;2022-12-07T09:29:37;11.27;83.98
74877;HTU21D;64660;44.786;37.680;2022-12-07T09:32:04;11.08;84.37
74877;HTU21D;64660;44.786;37.680;2022-12-07T09:34:31;10.85;84.80
74877;HTU21D;64660;44.786;37.680;2022-12-07T09:37:08;10.64;85.22
74877;HTU21D;64660;44.786;37.680;2022-12-07T09:39:38;10.57;85.50
74877;HTU21D;64660;44.786;37.680;2022-12-07T09:42:08;10.54;85.58
74877;HTU21D;64660;44.786;37.680;2022-12-07T09:44:46;10.52;85.65
74877;HTU21D;64660;44.786;37.680;2022-12-07T09:47:16;10.54;85.70
74877;HTU21D;64660;44.786;37.680;2022-12-07T09:49:42;10.60;85.71
74877;HTU21D;64660;44.786;37.680;2022-12-07T09:54:41;10.62;85.93
74877;HTU21D;64660;44.786;37.680;2022-12-07T09:57:11;10.66;85.98
74877;HTU21D;64660;44.786;37.680;2022-12-07T09:59:41;10.67;86.13
74877;HTU21D;64660;44.786;37.680;2022-12-07T10:02:23;10.71;86.20
74877;HTU21D;64660;44.786;37.680;2022-12-07T10:04:51;10.71;86.25
74877;HTU21D;64660;44.786;37.680;2022-12-07T10:07:20;10.71;86.35
74877;HTU21D;64660;44.786;37.680;2022-12-07T10:09:48;10.73;86.42
74877;HTU21D;64660;44.786;37.680;2022-12-07T10:12:16;10.67;86.51
74877;HTU21D;64660;44.786;37.680;2022-12-07T10:15:02;10.59;86.74
74877;HTU21D;64660;44.786;37.680;2022-12-07T10:17:36;10.53;86.73
74877;HTU21D;64660;44.786;37.680;2022-12-07T10:23:03;10.54;86.99
74877;HTU21D;64660;44.786;37.680;2022-12-07T10:25:32;10.55;86.93
74877;HTU21D;64660;44.786;37.680;2022-12-07T10:28:21;10.55;86.95
74877;HTU21D;64660;44.786;37.680;2022-12-07T10:30:59;10.51;86.93
74877;HTU21D;64660;44.786;37.680;2022-12-07T10:33:31;10.43;87.01
74877;HTU21D;64660;44.786;37.680;2022-12-07T10:36:18;10.39;87.05
74877;HTU21D;64660;44.786;37.680;2022-12-07T10:41:36;10.16;86.89
74877;HTU21D;64660;44.786;37.680;2022-12-07T10:44:32;9.98;87.01
74877;HTU21D;64660;44.786;37.680;2022-12-07T10:49:50;9.76;87.07
74877;HTU21D;64660;44.786;37.680;2022-12-07T10:52:43;9.78;87.09
74877;HTU21D;64660;44.786;37.680;2022-12-07T10:55:20;9.89;87.03
74877;HTU21D;64660;44.786;37.680;2022-12-07T11:00:30;10.00;86.95
74877;HTU21D;64660;44.786;37.680;2022-12-07T11:05:47;9.77;87.42
74877;HTU21D;64660;44.786;37.680;2022-12-07T11:11:06;9.69;87.80
74877;HTU21D;64660;44.786;37.680;2022-12-07T11:21:39;10.08;87.73
74877;HTU21D;64660;44.786;37.680;2022-12-07T11:24:17;10.21;87.61
74877;HTU21D;64660;44.786;37.680;2022-12-07T11:32:28;10.21;88.07
74877;HTU21D;64660;44.786;37.680;2022-12-07T11:38:15;10.36;88.04
74877;HTU21D;64660;44.786;37.680;2022-12-07T11:40:43;10.41;87.95
74877;HTU21D;64660;44.786;37.680;2022-12-07T11:46:10;10.52;87.91
74877;HTU21D;64660;44.786;37.680;2022-12-07T11:51:35;10.49;87.98
74877;HTU21D;64660;44.786;37.680;2022-12-07T11:54:17;10.49;87.95
74877;HTU21D;64660;44.786;37.680;2022-12-07T11:56:47;10.50;88.02
74877;HTU21D;64660;44.786;37.680;2022-12-07T11:59:19;10.53;88.06
74877;HTU21D;64660;44.786;37.680;2022-12-07T12:01:55;10.59;87.99
74877;HTU21D;64660;44.786;37.680;2022-12-07T12:04:29;10.69;87.89
74877;HTU21D;64660;44.786;37.680;2022-12-07T12:07:07;10.78;87.82
74877;HTU21D;64660;44.786;37.680;2022-12-07T12:12:54;10.80;87.80
74877;HTU21D;64660;44.786;37.680;2022-12-07T12:20:51;10.65;88.22
74877;HTU21D;64660;44.786;37.680;2022-12-07T12:26:07;10.53;88.41
74877;HTU21D;64660;44.786;37.680;2022-12-07T12:33:59;10.41;88.56
74877;HTU21D;64660;44.786;37.680;2022-12-07T12:47:00;10.20;88.83
74877;HTU21D;64660;44.786;37.680;2022-12-07T12:49:33;10.15;88.87
74877;HTU21D;64660;44.786;37.680;2022-12-07T12:52:01;10.14;88.91
74877;HTU21D;64660;44.786;37.680;2022-12-07T12:54:30;10.13;88.93
74877;HTU21D;64660;44.786;37.680;2022-12-07T12:59:35;10.07;89.03
74877;HTU21D;64660;44.786;37.680;2022-12-07T13:02:16;10.01;89.11
74877;HTU21D;64660;44.786;37.680;2022-12-07T13:05:16;9.92;89.29
74877;HTU21D;64660;44.786;37.680;2022-12-07T13:10:25;9.77;89.60
74877;HTU21D;64660;44.786;37.680;2022-12-07T13:20:56;9.47;89.95
74877;HTU21D;64660;44.786;37.680;2022-12-07T13:28:37;9.27;90.10
74877;HTU21D;64660;44.786;37.680;2022-12-07T13:31:23;9.22;90.18
74877;HTU21D;64660;44.786;37.680;2022-12-07T13:33:52;9.16;90.17
74877;HTU21D;64660;44.786;37.680;2022-12-07T13:36:31;9.12;90.22
74877;HTU21D;64660;44.786;37.680;2022-12-07T13:39:17;9.10;90.16
74877;HTU21D;64660;44.786;37.680;2022-12-07T13:41:50;9.09;90.10
74877;HTU21D;64660;44.786;37.680;2022-12-07T13:44:33;9.06;90.08
74877;HTU21D;64660;44.786;37.680;2022-12-07T13:49:37;8.96;90.02
74877;HTU21D;64660;44.786;37.680;2022-12-07T13:54:48;8.81;90.16
74877;HTU21D;64660;44.786;37.680;2022-12-07T13:57:18;8.73;90.24
74877;HTU21D;64660;44.786;37.680;2022-12-07T13:59:46;8.62;90.37
74877;HTU21D;64660;44.786;37.680;2022-12-07T14:07:53;8.41;90.61
74877;HTU21D;64660;44.786;37.680;2022-12-07T14:10:26;8.37;90.61
74877;HTU21D;64660;44.786;37.680;2022-12-07T14:12:56;8.33;90.62
74877;HTU21D;64660;44.786;37.680;2022-12-07T14:15:31;8.30;90.59
74877;HTU21D;64660;44.786;37.680;2022-12-07T14:18:00;8.27;90.59
74877;HTU21D;64660;44.786;37.680;2022-12-07T14:20:36;8.24;90.56
74877;HTU21D;64660;44.786;37.680;2022-12-07T14:23:19;8.21;90.60
74877;HTU21D;64660;44.786;37.680;2022-12-07T14:28:38;8.08;90.66
74877;HTU21D;64660;44.786;37.680;2022-12-07T14:31:12;8.02;90.72
74877;HTU21D;64660;44.786;37.680;2022-12-07T14:33:40;8.01;90.76
74877;HTU21D;64660;44.786;37.680;2022-12-07T14:36:13;8.04;90.69
74877;HTU21D;64660;44.786;37.680;2022-12-07T14:38:40;8.06;90.57
74877;HTU21D;64660;44.786;37.680;2022-12-07T14:41:11;8.08;90.50
74877;HTU21D;64660;44.786;37.680;2022-12-07T14:44:08;8.05;90.45
74877;HTU21D;64660;44.786;37.680;2022-12-07T14:46:36;8.00;90.49
74877;HTU21D;64660;44.786;37.680;2022-12-07T14:49:02;7.98;90.53
74877;HTU21D;64660;44.786;37.680;2022-12-07T14:52:19;7.94;90.53
74877;HTU21D;64660;44.786;37.680;2022-12-07T14:54:58;7.90;90.55
74877;HTU21D;64660;44.786;37.680;2022-12-07T14:57:26;7.84;90.66
74877;HTU21D;64660;44.786;37.680;2022-12-07T14:59:56;7.82;90.73
74877;HTU21D;64660;44.786;37.680;2022-12-07T15:02:24;7.82;90.74
74877;HTU21D;64660;44.786;37.680;2022-12-07T15:04:51;7.83;90.67
74877;HTU21D;64660;44.786;37.680;2022-12-07T15:07:20;7.82;90.66
74877;HTU21D;64660;44.786;37.680;2022-12-07T15:09:49;7.79;90.67
74877;HTU21D;64660;44.786;37.680;2022-12-07T15:12:18;7.74;90.69
74877;HTU21D;64660;44.786;37.680;2022-12-07T15:14:46;7.69;90.77
74877;HTU21D;64660;44.786;37.680;2022-12-07T15:17:13;7.67;90.86
74877;HTU21D;64660;44.786;37.680;2022-12-07T15:19:49;7.61;90.91
74877;HTU21D;64660;44.786;37.680;2022-12-07T15:22:17;7.56;90.99
74877;HTU21D;64660;44.786;37.680;2022-12-07T15:25:02;7.52;91.09
74877;HTU21D;64660;44.786;37.680;2022-12-07T15:27:39;7.46;91.14
74877;HTU21D;64660;44.786;37.680;2022-12-07T15:30:16;7.43;91.15
74877;HTU21D;64660;44.786;37.680;2022-12-07T15:32:54;7.38;91.22
74877;HTU21D;64660;44.786;37.680;2022-12-07T15:35:26;7.35;91.23
74877;HTU21D;64660;44.786;37.680;2022-12-07T15:37:52;7.31;91.23
74877;HTU21D;64660;44.786;37.680;2022-12-07T15:40:19;7.31;91.31
74877;HTU21D;64660;44.786;37.680;2022-12-07T15:42:55;7.29;91.27
74877;HTU21D;64660;44.786;37.680;2022-12-07T15:45:21;7.30;91.22
74877;HTU21D;64660;44.786;37.680;2022-12-07T15:47:59;7.26;91.26
74877;HTU21D;64660;44.786;37.680;2022-12-07T15:50:27;7.23;91.36
74877;HTU21D;64660;44.786;37.680;2022-12-07T15:52:54;7.20;91.38
74877;HTU21D;64660;44.786;37.680;2022-12-07T15:55:20;6.68;91.46
74877;HTU21D;64660;44.786;37.680;2022-12-07T15:57:49;7.20;91.40
74877;HTU21D;64660;44.786;37.680;2022-12-07T16:00:18;7.23;91.34
74877;HTU21D;64660;44.786;37.680;2022-12-07T16:02:45;7.23;91.30
74877;HTU21D;64660;44.786;37.680;2022-12-07T16:05:11;7.24;91.25
74877;HTU21D;64660;44.786;37.680;2022-12-07T16:07:38;7.20;91.27
74877;HTU21D;64660;44.786;37.680;2022-12-07T16:10:06;7.17;91.36
74877;HTU21D;64660;44.786;37.680;2022-12-07T16:12:34;7.14;91.43
74877;HTU21D;64660;44.786;37.680;2022-12-07T16:15:00;7.11;91.46
74877;HTU21D;64660;44.786;37.680;2022-12-07T16:17:40;7.05;91.60
74877;HTU21D;64660;44.786;37.680;2022-12-07T16:20:21;7.01;91.72
74877;HTU21D;64660;44.786;37.680;2022-12-07T16:23:00;6.99;91.72
74877;HTU21D;64660;44.786;37.680;2022-12-07T16:25:37;6.99;91.71
74877;HTU21D;64660;44.786;37.680;2022-12-07T16:28:06;7.01;91.68
74877;HTU21D;64660;44.786;37.680;2022-12-07T16:30:35;6.99;91.63
74877;HTU21D;64660;44.786;37.680;2022-12-07T16:33:02;6.97;91.60
74877;HTU21D;64660;44.786;37.680;2022-12-07T16:35:29;6.94;91.61
74877;HTU21D;64660;44.786;37.680;2022-12-07T16:37:59;6.91;91.60
74877;HTU21D;64660;44.786;37.680;2022-12-07T16:40:29;6.88;91.58
74877;HTU21D;64660;44.786;37.680;2022-12-07T16:42:58;6.87;91.53
74877;HTU21D;64660;44.786;37.680;2022-12-07T16:45:26;6.83;91.48
74877;HTU21D;64660;44.786;37.680;2022-12-07T16:47:52;6.79;91.53
74877;HTU21D;64660;44.786;37.680;2022-12-07T16:50:20;6.72;91.58
74877;HTU21D;64660;44.786;37.680;2022-12-07T16:52:47;6.67;91.63
74877;HTU21D;64660;44.786;37.680;2022-12-07T16:55:15;6.61;91.65
74877;HTU21D;64660;44.786;37.680;2022-12-07T16:57:42;6.56;91.67
74877;HTU21D;64660;44.786;37.680;2022-12-07T17:00:20;6.51;91.72
74877;HTU21D;64660;44.786;37.680;2022-12-07T17:02:49;6.49;91.73
74877;HTU21D;64660;44.786;37.680;2022-12-07T17:05:18;6.45;91.72
74877;HTU21D;64660;44.786;37.680;2022-12-07T17:07:45;6.42;91.73
74877;HTU21D;64660;44.786;37.680;2022-12-07T17:10:11;6.41;91.76
74877;HTU21D;64660;44.786;37.680;2022-12-07T17:12:39;6.40;91.77
74877;HTU21D;64660;44.786;37.680;2022-12-07T17:15:08;6.38;91.79
74877;HTU21D;64660;44.786;37.680;2022-12-07T17:18:06;6.33;91.87
74877;HTU21D;64660;44.786;37.680;2022-12-07T17:20:36;6.30;91.92
74877;HTU21D;64660;44.786;37.680;2022-12-07T17:23:09;6.26;92.01
74877;HTU21D;64660;44.786;37.680;2022-12-07T17:25:37;6.25;92.01
74877;HTU21D;64660;44.786;37.680;2022-12-07T17:28:06;6.22;92.08
74877;HTU21D;64660;44.786;37.680;2022-12-07T17:30:41;6.17;92.08
74877;HTU21D;64660;44.786;37.680;2022-12-07T17:33:09;6.14;92.11
74877;HTU21D;64660;44.786;37.680;2022-12-07T17:35:36;6.11;92.13
74877;HTU21D;64660;44.786;37.680;2022-12-07T17:38:06;6.08;92.16
74877;HTU21D;64660;44.786;37.680;2022-12-07T17:40:34;6.07;92.19
74877;HTU21D;64660;44.786;37.680;2022-12-07T17:43:01;6.06;92.21
74877;HTU21D;64660;44.786;37.680;2022-12-07T17:45:28;6.08;92.21
74877;HTU21D;64660;44.786;37.680;2022-12-07T17:47:55;6.06;92.20
74877;HTU21D;64660;44.786;37.680;2022-12-07T17:50:22;6.05;92.18
74877;HTU21D;64660;44.786;37.680;2022-12-07T17:53:11;6.04;92.23